• Join FlightAware (Why Join?)
  • Login
  • US Flag 
05:29AM EDT


 

Airport Tracker/Info


-or-


 

Live Flight TrackerFlight Track Log ✈ PDT4292 ✈ 02-Jul-2013 ✈ KPHL - KHPN

Flight Track Log - Related Links

Times and Time Zones

All times are in EDT time to prevent confusion due to time zone crossing. See the PDT4292 flight status page for this flight to view local times or setup timezone preferences in your user account.

Time Position Orientation Groundspeed Altitude Reporting Facility
EDT Latitude Longitude Course Direction KTS MPH feet Rate Location/Type
02:00PM 39.8833 -75.2000 349° North 123 142 600  Level Philadelphia TRACON
02:01PM 39.9167 -75.1833 21° North 144 166 1,600 1,020 Climbing Philadelphia TRACON
02:02PM 39.9500 -75.1500 37° Northeast 162 186 2,500 660 Climbing Philadelphia TRACON
02:03PM 40.1016 -75.2924 349° North  Level FlightAware Approximate
02:03PM 40.0000 -75.1500 360° North 174 200 3,000  Level Philadelphia TRACON
02:04PM 40.1613 -75.3079 349° North  Level FlightAware Approximate
02:04PM 40.0500 -75.1667 346° North 193 222 3,900  Level Philadelphia TRACON
02:05PM 40.2210 -75.3234 349° North  Level FlightAware Approximate
02:05PM 40.1000 -75.1833 346° North 220 253 4,000  Level Philadelphia TRACON
02:07PM 40.2051 -75.2432 337° Northwest  Level FlightAware Approximate
02:14PM 40.6157 -75.4247 349° North  Level FlightAware Approximate
02:15PM 40.6755 -75.4397 349° North  Level FlightAware Approximate
02:15PM 40.7000 -75.1500 59° Northeast 231 266 4,000  Level New York TRACON
02:16PM 40.7267 -75.4287 58° Northeast  Level FlightAware Approximate
02:16PM 40.7667 -75.1000 30° Northeast 235 270 4,000  Level New York TRACON
02:17PM 40.7586 -75.3603 58° Northeast  Level FlightAware Approximate
02:17PM 40.8000 -75.0333 57° Northeast 231 266 4,000  Level New York TRACON
02:18PM 40.7905 -75.2918 58° Northeast  Level FlightAware Approximate
02:18PM 40.8333 -74.9667 57° Northeast 230 265 4,000  Level New York TRACON
02:19PM 40.8223 -75.2233 58° Northeast  Level FlightAware Approximate
02:19PM 40.8500 -74.8833 75° East 233 268 4,000  Level New York TRACON
02:20PM 40.8542 -75.1547 58° Northeast  Level FlightAware Approximate
02:20PM 40.8833 -74.8167 57° Northeast 231 266 4,000  Level New York TRACON
02:21PM 40.8859 -75.0860 59° Northeast  Level FlightAware Approximate
02:21PM 40.9167 -74.7333 62° Northeast 235 270 4,000  Level New York TRACON
02:22PM 40.9500 -74.6667 56° Northeast 238 274 4,000 -420 Level New York TRACON
02:23PM 40.9833 -74.5833 62° Northeast 241 277 3,200 -480 Descending New York TRACON
02:24PM 41.0167 -74.5000 62° Northeast 245 282 3,000 -120 Descending New York TRACON
02:25PM 41.0500 -74.4167 62° Northeast 234 269 3,000  Level New York TRACON
02:26PM 41.0667 -74.3500 72° East 232 267 3,000  Level New York TRACON
02:27PM 41.1000 -74.2667 62° Northeast 230 265 3,100  Climbing New York TRACON
02:28PM 41.1333 -74.2000 56° Northeast 233 268 3,000  Descending New York TRACON
02:29PM 41.1500 -74.1167 75° East 231 266 3,100  Climbing New York TRACON
02:30PM 41.1667 -74.0500 72° East 232 267 3,000 -60 Descending New York TRACON
02:31PM 41.2000 -73.9667 62° Northeast 229 264 3,000  Level New York TRACON
02:32PM 41.2500 -73.9167 37° Northeast 207 238 3,000  Level New York TRACON
02:33PM 41.2667 -73.8667 66° East 191 220 3,000  Level New York TRACON
02:34PM 41.2333 -73.8333 143° Southeast 140 161 3,000  Level New York TRACON
02:35PM 41.2000 -73.8167 159° South 156 180 3,000  Level New York TRACON